LEBZ/BJZ METAR and TAF weather

Enter ICAO airport designator
Station Type Date Time Source
LEBZ METAR 2019/02/17 16:00 UTC NOAA

LEBZ 171600Z 26005KT 210V300 9999 FEW048 18/06 Q1018


Station Type Date Time Source
LEBZ Decoded METAR 2019/02/17 16:00 UTC NOAA

Badajoz / Talavera La Real, Spain (LEBZ) 38-53N 006-49W 192M
Feb 17, 2019 - 11:00 AM EST / 2019.02.17 1600 UTC
Wind: from the W (260 degrees) at 6 MPH (5 KT) (direction variable):0
Visibility: greater than 7 mile(s):0
Sky conditions: mostly clear
Temperature: 64 F (18 C)
Dew Point: 42 F (6 C)
Relative Humidity: 45%
Pressure (altimeter): 30.06 in. Hg (1018 hPa)
ob: LEBZ 171600Z 26005KT 210V300 9999 FEW048 18/06 Q1018
cycle: 16

Station Type Date Time Source
LEBZ TAF 2019/02/17 12:27 UTC NOAA

TAF LEBZ 171100Z 1712/1812 09005KT CAVOK TX17/1715Z TN08/1805Z PROB40
TEMPO 1802/1812 4000 RA BKN009


Example: see airport list